createdAt,value
2018-02-08T00:01:09.959Z,120.07
2018-02-08T00:03:37.469Z,124.53
2018-02-08T00:06:05.145Z,111.40
2018-02-08T00:08:32.677Z,142.07
2018-02-08T00:11:00.201Z,117.65
2018-02-08T00:13:27.781Z,114.25
2018-02-08T00:15:55.312Z,125.00
2018-02-08T00:18:22.846Z,118.43
2018-02-08T00:20:50.398Z,112.28
2018-02-08T00:23:17.938Z,108.00
2018-02-08T00:25:45.516Z,109.93
2018-02-08T00:28:13.037Z,121.75
2018-02-08T00:30:40.562Z,123.38
2018-02-08T00:33:08.119Z,121.25
2018-02-08T00:35:35.632Z,150.13
2018-02-08T00:38:03.158Z,129.35
2018-02-08T00:40:30.719Z,108.65
2018-02-08T00:42:58.430Z,136.75
2018-02-08T00:45:25.967Z,124.40
2018-02-08T00:47:53.495Z,142.60
2018-02-08T00:50:21.047Z,126.20
2018-02-08T00:52:48.569Z,132.10
2018-02-08T00:55:16.148Z,150.77
2018-02-08T00:57:43.681Z,161.20
2018-02-08T01:00:11.257Z,166.07
2018-02-08T01:02:38.800Z,192.87
2018-02-08T01:05:06.321Z,143.65
2018-02-08T01:07:33.847Z,140.60
2018-02-08T01:10:01.392Z,134.90
2018-02-08T01:12:28.916Z,120.72
2018-02-08T01:14:56.484Z,125.30
2018-02-08T01:17:24.006Z,112.77
2018-02-08T01:19:51.551Z,126.65
2018-02-08T01:22:19.120Z,91.65
2018-02-08T01:24:46.653Z,161.00
2018-02-08T01:27:14.198Z,79.55
2018-02-08T01:29:41.867Z,111.25
2018-02-08T01:32:09.388Z,113.43
2018-02-08T01:34:36.920Z,117.25
2018-02-08T01:37:04.441Z,147.00
2018-02-08T01:39:31.991Z,108.97
2018-02-08T01:41:59.773Z,108.05
2018-02-08T01:44:27.323Z,135.00
2018-02-08T01:46:54.893Z,90.50
2018-02-08T01:49:34.296Z,116.60
2018-02-08T01:52:01.847Z,108.20
2018-02-08T01:54:29.392Z,113.22
2018-02-08T01:56:56.942Z,112.55
2018-02-08T01:59:24.524Z,84.62
2018-02-08T02:01:52.087Z,102.35
2018-02-08T02:04:19.620Z,97.72
2018-02-08T02:06:47.153Z,131.52
2018-02-08T02:09:14.695Z,138.32
2018-02-08T02:11:42.280Z,114.47
2018-02-08T02:14:09.863Z,91.70
2018-02-08T02:16:37.506Z,164.48
2018-02-08T02:19:05.057Z,152.45
2018-02-08T02:21:32.712Z,109.60
2018-02-08T02:24:00.229Z,127.97
2018-02-08T02:26:27.821Z,130.02
2018-02-08T02:28:55.366Z,109.75
2018-02-08T02:31:22.893Z,114.15
2018-02-08T02:33:50.465Z,113.47
2018-02-08T02:36:18.013Z,110.00
2018-02-08T02:38:45.715Z,129.57
2018-02-08T02:41:13.283Z,96.63
2018-02-08T02:43:40.813Z,110.50
2018-02-08T02:46:08.495Z,119.18
2018-02-08T02:48:36.022Z,90.62
2018-02-08T02:51:03.585Z,102.15
2018-02-08T02:53:31.156Z,124.75
2018-02-08T02:55:58.738Z,108.68
2018-02-08T02:58:26.298Z,107.75
2018-02-08T03:00:53.828Z,109.97
2018-02-08T03:03:21.434Z,102.65
2018-02-08T03:05:48.977Z,112.43
2018-02-08T03:08:16.542Z,109.97
2018-02-08T03:10:44.091Z,111.53
2018-02-08T03:13:11.683Z,110.70
2018-02-08T03:15:39.260Z,101.60
2018-02-08T03:18:06.871Z,112.97
2018-02-08T03:20:34.423Z,100.18
2018-02-08T03:23:02.001Z,112.57
2018-02-08T03:25:29.549Z,102.10
2018-02-08T03:27:57.077Z,105.45
2018-02-08T03:30:36.348Z,110.93
2018-02-08T03:33:03.892Z,101.03
2018-02-08T03:35:31.465Z,111.25
2018-02-08T03:37:59.021Z,100.38
2018-02-08T03:40:26.547Z,110.43
2018-02-08T03:42:54.100Z,83.57
2018-02-08T03:45:21.621Z,111.20
2018-02-08T03:47:49.142Z,108.65
2018-02-08T03:50:16.720Z,99.15
2018-02-08T03:52:44.309Z,110.93
2018-02-08T03:55:11.865Z,106.65
2018-02-08T03:57:39.445Z,102.65
2018-02-08T04:00:06.989Z,90.78
2018-02-08T04:02:34.535Z,91.75
2018-02-08T04:05:02.098Z,110.55
2018-02-08T04:07:29.613Z,95.05
2018-02-08T04:09:57.208Z,90.30
2018-02-08T04:12:24.749Z,96.22
2018-02-08T04:14:52.296Z,96.32
2018-02-08T04:17:19.877Z,110.68
2018-02-08T04:19:47.403Z,104.47
2018-02-08T04:22:14.947Z,113.28
2018-02-08T04:24:42.504Z,110.88
2018-02-08T04:27:10.056Z,111.57
2018-02-08T04:29:37.691Z,105.32
2018-02-08T04:32:05.226Z,108.00
2018-02-08T04:34:32.761Z,101.90
2018-02-08T04:37:00.288Z,96.60
2018-02-08T04:39:39.609Z,102.35
2018-02-08T04:42:19.100Z,107.65
2018-02-08T04:44:58.481Z,102.12
2018-02-08T04:47:43.569Z,102.85
2018-02-08T04:50:11.110Z,97.37
2018-02-08T04:52:38.650Z,100.82
2018-02-08T04:55:06.252Z,89.97
2018-02-08T04:57:33.803Z,107.95
2018-02-08T05:00:01.347Z,89.68
2018-02-08T05:02:28.892Z,95.10
2018-02-08T05:04:56.438Z,110.50
2018-02-08T05:07:23.990Z,103.45
2018-02-08T05:09:51.514Z,101.93
2018-02-08T05:12:19.036Z,93.32
2018-02-08T05:14:46.580Z,98.82
2018-02-08T05:17:14.115Z,98.22
2018-02-08T05:19:41.649Z,96.25
2018-02-08T05:22:09.214Z,101.62
2018-02-08T05:24:36.724Z,97.65
2018-02-08T05:27:04.293Z,102.75
2018-02-08T05:29:32.024Z,104.95
2018-02-08T05:31:59.572Z,100.90
2018-02-08T05:34:27.116Z,104.18
2018-02-08T05:36:54.742Z,102.93
2018-02-08T05:39:22.305Z,108.63
2018-02-08T05:41:49.843Z,96.95
2018-02-08T05:44:17.392Z,102.62
2018-02-08T05:46:44.933Z,87.82
2018-02-08T05:49:12.456Z,114.47
2018-02-08T05:51:39.974Z,101.87
2018-02-08T05:54:07.533Z,102.97
2018-02-08T05:56:35.081Z,113.37
2018-02-08T05:59:02.609Z,114.20
2018-02-08T06:01:30.142Z,101.38
2018-02-08T06:03:57.763Z,95.90
2018-02-08T06:06:25.340Z,98.37
2018-02-08T06:08:52.852Z,98.07
2018-02-08T06:11:20.391Z,100.82
2018-02-08T06:13:47.940Z,104.45
2018-02-08T06:16:15.492Z,115.55
2018-02-08T06:18:43.021Z,104.93
2018-02-08T06:21:10.585Z,96.85
2018-02-08T06:23:38.136Z,119.22
2018-02-08T06:26:05.695Z,112.50
2018-02-08T06:28:33.250Z,127.20
2018-02-08T06:31:00.792Z,104.80
2018-02-08T06:33:28.320Z,117.28
2018-02-08T06:35:55.856Z,89.50
2018-02-08T06:38:23.419Z,110.97
2018-02-08T06:40:50.956Z,108.68
2018-02-08T06:43:18.497Z,106.30
2018-02-08T06:45:46.172Z,102.38
2018-02-08T06:48:13.712Z,115.00
2018-02-08T06:50:41.261Z,100.40
2018-02-08T06:53:08.813Z,115.32
2018-02-08T06:55:36.363Z,115.30
2018-02-08T06:58:03.916Z,105.20
2018-02-08T07:00:31.540Z,100.35
2018-02-08T07:02:59.304Z,111.40
2018-02-08T07:05:26.839Z,114.28
2018-02-08T07:07:54.372Z,94.00
2018-02-08T07:10:21.926Z,122.97
2018-02-08T07:12:49.444Z,101.82
2018-02-08T07:15:17.249Z,115.47
2018-02-08T07:17:44.868Z,101.22
2018-02-08T07:20:12.387Z,105.80
2018-02-08T07:22:39.908Z,102.00
2018-02-08T07:25:07.497Z,101.32
2018-02-08T07:27:35.172Z,99.72
2018-02-08T07:30:02.714Z,110.47
2018-02-08T07:32:30.316Z,110.55
2018-02-08T07:34:57.956Z,98.22
2018-02-08T07:37:26.167Z,109.55
2018-02-08T07:39:53.710Z,118.00
2018-02-08T07:42:21.276Z,110.78
2018-02-08T07:44:48.825Z,105.25
2018-02-08T07:47:16.384Z,101.40
2018-02-08T07:49:44.046Z,117.57
2018-02-08T07:52:11.570Z,109.60
2018-02-08T07:54:39.137Z,109.45
2018-02-08T07:57:06.704Z,102.97
2018-02-08T07:59:34.228Z,112.47
2018-02-08T08:02:01.796Z,94.62
2018-02-08T08:04:29.339Z,96.00
2018-02-08T08:06:56.963Z,100.60
2018-02-08T08:09:24.492Z,90.60
2018-02-08T08:11:52.062Z,99.57
2018-02-08T08:14:19.586Z,92.62
2018-02-08T08:16:47.125Z,104.35
2018-02-08T08:19:14.696Z,100.30
2018-02-08T08:21:42.504Z,103.10
2018-02-08T08:24:10.082Z,95.75
2018-02-08T08:26:37.664Z,100.00
2018-02-08T08:29:05.180Z,94.70
2018-02-08T08:31:32.750Z,78.65
2018-02-08T08:34:00.348Z,82.68
2018-02-08T08:36:27.893Z,85.22
2018-02-08T08:38:55.466Z,78.25
2018-02-08T08:41:22.982Z,78.80
2018-02-08T08:43:50.517Z,78.43
2018-02-08T08:46:18.073Z,69.87
2018-02-08T08:48:45.581Z,80.57
2018-02-08T08:51:13.100Z,90.80
2018-02-08T08:53:40.642Z,85.40
2018-02-08T08:56:08.184Z,75.20
2018-02-08T08:58:35.932Z,85.30
2018-02-08T09:01:03.475Z,76.78
2018-02-08T09:03:31.052Z,77.78
2018-02-08T09:05:58.573Z,74.60
2018-02-08T09:08:26.172Z,89.73
2018-02-08T09:10:53.864Z,82.63
2018-02-08T09:13:21.493Z,87.07
2018-02-08T09:15:49.036Z,104.27
2018-02-08T09:18:16.612Z,80.25
2018-02-08T09:20:44.141Z,96.13
2018-02-08T09:23:11.752Z,68.57
2018-02-08T09:25:39.290Z,78.17
2018-02-08T09:28:06.821Z,80.23
2018-02-08T09:30:35.198Z,78.03
2018-02-08T09:33:02.753Z,78.97
2018-02-08T09:35:30.346Z,88.00
2018-02-08T09:37:58.011Z,91.00
2018-02-08T09:40:25.549Z,101.27
2018-02-08T09:42:53.084Z,96.50
2018-02-08T09:45:20.876Z,82.53
2018-02-08T09:47:48.441Z,86.33
2018-02-08T09:50:15.958Z,85.03
2018-02-08T09:52:43.488Z,75.63
2018-02-08T09:55:11.045Z,81.30
2018-02-08T09:57:38.580Z,75.43
2018-02-08T10:00:06.089Z,88.17
2018-02-08T10:02:33.632Z,69.40
2018-02-08T10:05:01.169Z,74.50
2018-02-08T10:07:28.705Z,74.37
2018-02-08T10:09:56.242Z,82.77
2018-02-08T10:12:23.828Z,82.27
2018-02-08T10:14:51.482Z,87.90
2018-02-08T10:17:19.012Z,88.13
2018-02-08T10:19:46.529Z,81.40
2018-02-08T10:22:14.051Z,98.00
2018-02-08T10:24:41.557Z,81.97
2018-02-08T10:27:09.177Z,81.57
2018-02-08T10:29:36.686Z,80.90
2018-02-08T10:32:04.282Z,89.63
2018-02-08T10:34:31.811Z,76.27
2018-02-08T10:36:59.333Z,70.30
2018-02-08T10:39:26.893Z,81.27
2018-02-08T10:41:54.412Z,84.70
2018-02-08T10:44:21.943Z,82.00
2018-02-08T10:46:49.495Z,64.77
2018-02-08T10:49:17.011Z,68.70
2018-02-08T10:51:44.564Z,82.60
2018-02-08T10:54:12.133Z,79.53
2018-02-08T10:56:39.660Z,81.75
2018-02-08T10:59:07.252Z,78.03
2018-02-08T11:01:34.782Z,75.70
2018-02-08T11:04:02.317Z,69.63
2018-02-08T11:06:29.840Z,63.97
2018-02-08T11:08:57.386Z,69.03
2018-02-08T11:11:24.922Z,63.23
2018-02-08T11:13:52.433Z,76.23
2018-02-08T11:16:20.024Z,93.57
2018-02-08T11:18:47.526Z,56.40
2018-02-08T11:21:15.062Z,73.20
2018-02-08T11:23:42.590Z,73.50
2018-02-08T11:26:10.147Z,74.10
2018-02-08T11:28:37.678Z,70.43
2018-02-08T11:31:05.193Z,71.53
2018-02-08T11:33:32.866Z,59.97
2018-02-08T11:36:00.397Z,61.73
2018-02-08T11:38:28.003Z,54.47
2018-02-08T11:40:55.781Z,74.30
2018-02-08T11:43:23.285Z,62.80
2018-02-08T11:45:50.790Z,57.63
2018-02-08T11:48:18.338Z,54.07
2018-02-08T11:50:45.924Z,61.43
2018-02-08T11:53:13.465Z,48.00
2018-02-08T11:55:41.038Z,44.97
2018-02-08T11:58:08.809Z,57.77
2018-02-08T12:00:36.318Z,60.13
2018-02-08T12:03:03.825Z,37.50
2018-02-08T12:05:31.376Z,51.23
2018-02-08T12:07:58.892Z,47.13
2018-02-08T12:10:26.486Z,66.20
2018-02-08T12:12:54.045Z,50.83
2018-02-08T12:15:21.611Z,53.03
2018-02-08T12:17:49.145Z,53.78
2018-02-08T12:20:16.730Z,49.60
2018-02-08T12:22:44.260Z,54.53
2018-02-08T12:25:11.770Z,40.60
2018-02-08T12:27:39.329Z,52.80
2018-02-08T12:30:06.861Z,47.23
2018-02-08T12:32:34.374Z,39.27
2018-02-08T12:35:02.097Z,58.20
2018-02-08T12:37:29.606Z,41.47
2018-02-08T12:39:57.132Z,53.07
2018-02-08T12:42:24.681Z,47.10
2018-02-08T12:44:52.208Z,51.73
2018-02-08T12:47:19.717Z,59.23
2018-02-08T12:49:47.280Z,53.60
2018-02-08T12:52:14.803Z,55.93
2018-02-08T12:54:42.333Z,49.30
2018-02-08T12:57:09.856Z,57.63
2018-02-08T12:59:37.357Z,47.67
2018-02-08T13:02:04.920Z,53.23
2018-02-08T13:04:32.512Z,54.53
2018-02-08T13:07:00.044Z,46.27
2018-02-08T13:09:27.593Z,46.23
2018-02-08T13:11:55.129Z,56.83
2018-02-08T13:14:22.664Z,48.33
2018-02-08T13:16:50.173Z,53.83
2018-02-08T13:19:17.766Z,48.63
2018-02-08T13:21:45.301Z,50.73
2018-02-08T13:24:12.839Z,54.77
2018-02-08T13:26:40.550Z,50.10
2018-02-08T13:29:08.072Z,57.33
2018-02-08T13:31:36.366Z,55.27
2018-02-08T13:34:03.887Z,54.77
2018-02-08T13:36:42.229Z,48.47
2018-02-08T13:39:15.173Z,60.47
2018-02-08T13:41:42.736Z,66.00
2018-02-08T13:44:10.263Z,55.07
2018-02-08T13:46:37.768Z,57.67
2018-02-08T13:49:06.191Z,53.27
2018-02-08T13:51:36.565Z,62.07
2018-02-08T13:54:09.719Z,51.20
2018-02-08T13:56:42.847Z,71.13
2018-02-08T13:59:12.284Z,62.13
2018-02-08T14:01:41.572Z,64.63
2018-02-08T14:04:09.081Z,55.40
2018-02-08T14:06:36.641Z,58.17
2018-02-08T14:09:04.186Z,44.63
2018-02-08T14:11:31.736Z,55.97
2018-02-08T14:13:59.258Z,61.87
2018-02-08T14:16:26.788Z,65.57
2018-02-08T14:18:54.473Z,56.57
2018-02-08T14:21:21.992Z,63.17
2018-02-08T14:23:49.520Z,71.47
2018-02-08T14:26:17.249Z,47.40
2018-02-08T14:28:44.781Z,43.80
2018-02-08T14:31:12.358Z,47.33
2018-02-08T14:33:39.900Z,51.33
2018-02-08T14:36:07.417Z,56.37
2018-02-08T14:38:35.054Z,53.73
2018-02-08T14:41:02.801Z,48.03
2018-02-08T14:43:31.274Z,50.30
2018-02-08T14:45:58.782Z,57.90
2018-02-08T14:48:26.328Z,54.23
2018-02-08T14:50:53.932Z,53.33
2018-02-08T14:53:21.444Z,49.07
2018-02-08T14:55:48.993Z,57.50
2018-02-08T14:58:16.622Z,55.53
2018-02-08T15:00:44.133Z,58.10
2018-02-08T15:03:11.664Z,54.87
2018-02-08T15:05:39.220Z,60.10
2018-02-08T15:08:06.762Z,55.27
2018-02-08T15:10:34.345Z,58.00
2018-02-08T15:13:01.862Z,56.43
2018-02-08T15:15:29.443Z,63.07
2018-02-08T15:17:56.922Z,74.50
2018-02-08T15:20:24.446Z,54.03
2018-02-08T15:22:51.970Z,57.43
2018-02-08T15:25:19.500Z,63.77
2018-02-08T15:27:47.023Z,56.13
2018-02-08T15:30:14.627Z,52.40
2018-02-08T15:32:42.294Z,48.87
2018-02-08T15:35:09.824Z,59.10
2018-02-08T15:37:37.356Z,56.53
2018-02-08T15:40:04.931Z,54.40
2018-02-08T15:42:32.465Z,61.80
2018-02-08T15:45:00.018Z,54.03
2018-02-08T15:47:27.664Z,76.00
2018-02-08T15:49:55.165Z,56.93
2018-02-08T15:52:22.678Z,56.83
2018-02-08T15:54:50.313Z,60.83
2018-02-08T15:57:17.830Z,57.90
2018-02-08T15:59:45.445Z,57.53
2018-02-08T16:02:13.016Z,63.73
2018-02-08T16:04:40.528Z,51.80
2018-02-08T16:07:08.122Z,68.27
2018-02-08T16:09:35.669Z,75.13
2018-02-08T16:12:03.183Z,53.20
2018-02-08T16:14:30.708Z,65.50
2018-02-08T16:16:58.460Z,52.67
2018-02-08T16:19:25.968Z,56.07
2018-02-08T16:21:53.497Z,48.17
2018-02-08T16:24:21.044Z,51.40
2018-02-08T16:26:48.597Z,68.10
2018-02-08T16:29:16.172Z,51.57
2018-02-08T16:31:43.754Z,55.80
2018-02-08T16:34:11.372Z,61.80
2018-02-08T16:36:39.039Z,64.83
2018-02-08T16:39:06.615Z,54.07
2018-02-08T16:41:34.176Z,55.63
2018-02-08T16:44:01.722Z,59.87
2018-02-08T16:46:29.238Z,65.07
2018-02-08T16:48:56.786Z,55.43
2018-02-08T16:51:24.329Z,62.87
2018-02-08T16:53:51.867Z,61.37
2018-02-08T16:56:19.402Z,59.53
2018-02-08T16:58:46.931Z,58.13
2018-02-08T17:01:14.473Z,70.07
2018-02-08T17:03:42.030Z,68.50
2018-02-08T17:06:09.537Z,68.63
2018-02-08T17:08:37.053Z,69.70
2018-02-08T17:11:04.680Z,64.30
2018-02-08T17:13:32.245Z,55.83
2018-02-08T17:15:59.778Z,71.13
2018-02-08T17:18:27.441Z,63.27
2018-02-08T17:20:54.957Z,66.70
2018-02-08T17:23:22.465Z,63.93
2018-02-08T17:25:50.006Z,75.30
2018-02-08T17:28:17.540Z,66.57
2018-02-08T17:30:45.098Z,60.87
2018-02-08T17:33:12.629Z,62.87
2018-02-08T17:35:40.231Z,62.27
2018-02-08T17:38:07.791Z,70.37
2018-02-08T17:40:35.327Z,61.13
2018-02-08T17:43:02.843Z,53.83
2018-02-08T17:45:31.803Z,65.40
2018-02-08T17:47:59.332Z,58.87
2018-02-08T17:50:28.221Z,51.30
2018-02-08T17:52:55.832Z,69.93
2018-02-08T17:55:23.373Z,67.87
2018-02-08T17:57:50.941Z,58.20
2018-02-08T18:00:18.662Z,64.87
2018-02-08T18:02:46.203Z,69.27
2018-02-08T18:05:13.740Z,66.67
2018-02-08T18:07:41.341Z,70.90
2018-02-08T18:10:08.899Z,66.50
2018-02-08T18:12:36.425Z,69.23
2018-02-08T18:15:03.942Z,68.50
2018-02-08T18:17:31.521Z,71.17
2018-02-08T18:19:59.043Z,74.43
2018-02-08T18:22:26.556Z,77.43
2018-02-08T18:24:54.124Z,78.93
2018-02-08T18:27:21.644Z,80.63
2018-02-08T18:29:49.239Z,63.30
2018-02-08T18:32:16.798Z,127.00
2018-02-08T18:34:44.309Z,63.73
2018-02-08T18:37:11.858Z,63.57
2018-02-08T18:39:39.369Z,68.23
2018-02-08T18:42:06.905Z,64.53
2018-02-08T18:44:34.633Z,56.00
2018-02-08T18:47:02.174Z,63.57
2018-02-08T18:49:29.685Z,68.23
2018-02-08T18:51:57.334Z,63.00
2018-02-08T18:54:24.847Z,71.83
2018-02-08T18:56:52.360Z,73.83
2018-02-08T18:59:19.906Z,64.80
2018-02-08T19:01:47.556Z,68.20
2018-02-08T19:04:15.139Z,69.30
2018-02-08T19:06:42.677Z,64.73
2018-02-08T19:09:10.238Z,66.47
2018-02-08T19:11:37.779Z,74.53
2018-02-08T19:14:05.372Z,68.03
2018-02-08T19:16:32.882Z,75.90
2018-02-08T19:19:00.392Z,66.60
2018-02-08T19:21:27.936Z,68.83
2018-02-08T19:23:55.449Z,67.87
2018-02-08T19:26:22.983Z,66.67
2018-02-08T19:28:50.575Z,58.50
2018-02-08T19:31:18.163Z,66.77
2018-02-08T19:33:45.714Z,66.97
2018-02-08T19:36:13.273Z,71.97
2018-02-08T19:38:40.813Z,73.17
2018-02-08T19:41:08.329Z,76.67
2018-02-08T19:43:35.967Z,71.50
2018-02-08T19:46:03.491Z,80.93
2018-02-08T19:48:31.022Z,64.27
2018-02-08T19:50:58.569Z,72.00
2018-02-08T19:53:26.085Z,63.77
2018-02-08T19:55:53.626Z,75.03
2018-02-08T19:58:21.174Z,57.40
2018-02-08T20:00:48.794Z,87.37
2018-02-08T20:03:16.342Z,69.73
2018-02-08T20:05:43.887Z,122.57
2018-02-08T20:08:11.456Z,103.23
2018-02-08T20:10:39.249Z,94.27
2018-02-08T20:13:06.777Z,71.17
2018-02-08T20:15:34.736Z,67.50
2018-02-08T20:18:02.280Z,68.23
2018-02-08T20:20:30.021Z,67.83
2018-02-08T20:22:57.534Z,68.73
2018-02-08T20:25:31.028Z,60.60
2018-02-08T20:27:58.584Z,69.40
2018-02-08T20:30:26.123Z,84.17
2018-02-08T20:32:53.676Z,67.27
2018-02-08T20:35:21.235Z,83.70
2018-02-08T20:37:48.761Z,75.00
2018-02-08T20:40:22.321Z,72.20
2018-02-08T20:42:55.519Z,71.53
2018-02-08T20:45:23.073Z,65.00
2018-02-08T20:47:50.663Z,69.60
2018-02-08T20:50:18.409Z,79.77
2018-02-08T20:52:45.972Z,80.30
2018-02-08T20:55:13.505Z,96.30
2018-02-08T20:57:41.047Z,89.73
2018-02-08T21:00:08.584Z,81.17
2018-02-08T21:02:36.120Z,73.47
2018-02-08T21:05:03.795Z,82.50
2018-02-08T21:07:31.332Z,75.13
2018-02-08T21:09:58.881Z,76.87
2018-02-08T21:12:26.464Z,63.67
2018-02-08T21:14:54.006Z,68.53
2018-02-08T21:17:21.669Z,80.93
2018-02-08T21:19:49.237Z,98.00
2018-02-08T21:22:16.773Z,88.63
2018-02-08T21:24:44.453Z,91.40
2018-02-08T21:27:12.034Z,77.63
2018-02-08T21:29:39.564Z,108.10
2018-02-08T21:32:07.198Z,85.50
2018-02-08T21:34:34.713Z,77.20
2018-02-08T21:37:02.281Z,69.73
2018-02-08T21:39:29.946Z,85.20
2018-02-08T21:41:57.658Z,90.53
2018-02-08T21:44:25.183Z,78.70
2018-02-08T21:46:52.725Z,95.20
2018-02-08T21:49:20.273Z,78.07
2018-02-08T21:51:47.811Z,80.87
2018-02-08T21:54:15.473Z,117.50
2018-02-08T21:56:43.000Z,85.80
2018-02-08T21:59:10.546Z,92.77
2018-02-08T22:01:38.108Z,94.70
2018-02-08T22:04:05.657Z,93.55
2018-02-08T22:06:33.190Z,94.63
2018-02-08T22:09:00.753Z,89.10
2018-02-08T22:11:28.304Z,99.82
2018-02-08T22:13:55.829Z,97.80
2018-02-08T22:16:23.506Z,101.33
2018-02-08T22:18:51.079Z,98.53
2018-02-08T22:21:18.641Z,86.43
2018-02-08T22:23:46.162Z,93.47
2018-02-08T22:26:13.709Z,73.60
2018-02-08T22:28:41.249Z,86.73
2018-02-08T22:31:08.850Z,91.87
2018-02-08T22:33:36.392Z,95.63
2018-02-08T22:36:03.953Z,82.73
2018-02-08T22:38:31.477Z,81.87
2018-02-08T22:40:59.032Z,84.22
2018-02-08T22:43:26.593Z,92.00
2018-02-08T22:45:54.128Z,86.20
2018-02-08T22:48:21.675Z,90.97
2018-02-08T22:50:49.236Z,75.32
2018-02-08T22:53:16.790Z,81.60
2018-02-08T22:55:44.382Z,95.23
2018-02-08T22:58:11.937Z,79.95
2018-02-08T23:00:39.473Z,91.53
2018-02-08T23:03:07.076Z,105.93
2018-02-08T23:05:34.614Z,98.67
2018-02-08T23:08:02.145Z,92.73
2018-02-08T23:10:29.815Z,93.10
2018-02-08T23:12:57.352Z,97.60
2018-02-08T23:15:24.934Z,91.63
2018-02-08T23:17:52.613Z,103.47
2018-02-08T23:20:20.129Z,88.70
2018-02-08T23:22:47.713Z,88.20
2018-02-08T23:25:15.264Z,77.68
2018-02-08T23:27:42.793Z,88.70
2018-02-08T23:30:10.337Z,87.10
2018-02-08T23:32:37.894Z,83.00
2018-02-08T23:35:05.442Z,95.53
2018-02-08T23:37:33.014Z,92.07
2018-02-08T23:40:00.665Z,85.32
2018-02-08T23:42:28.206Z,77.23
2018-02-08T23:44:55.725Z,71.10
2018-02-08T23:47:23.313Z,79.00
2018-02-08T23:49:50.880Z,85.53
2018-02-08T23:52:18.401Z,85.47
2018-02-08T23:54:45.989Z,86.32
2018-02-08T23:57:13.544Z,73.20
2018-02-08T23:59:41.218Z,79.35
